Terminal Aerodrome Forecast
Issued by NWS

Home | Current Version | Previous Version | Text Only | Print | Product List | Glossary On
Versions: 1 2 3 4 5 6 7 8 9 10 11 12 13 14 15 16 17 18 19 20 21 22 23 24 25 26 27 28 29 30
715
FTUS46 KMTR 231454 AAA
TAFSFO
TAF AMD
KSFO 231454Z 2315/2418 VRB03KT P6SM OVC150
     FM232000 30008KT P6SM VCSH SCT080 OVC100
     FM240400 29006KT P6SM SCT015 BKN080
     FM240900 29004KT P6SM BKN015=

USA.gov is the U.S. government's official web portal to all federal, state and local government web resources and services.